sensor_id;sensor_type;location;lat;lon;timestamp;P1;durP1;ratioP1;P2;durP2;ratioP2
60233;SDS011;49514;43.538;-5.708;2023-07-29T03:38:17;7.03;;;1.95;;
60233;SDS011;49514;43.538;-5.708;2023-07-29T03:40:44;3.45;;;2.15;;
60233;SDS011;49514;43.538;-5.708;2023-07-29T03:43:10;7.15;;;2.30;;
60233;SDS011;49514;43.538;-5.708;2023-07-29T03:45:37;4.45;;;1.73;;
60233;SDS011;49514;43.538;-5.708;2023-07-29T03:48:05;15.85;;;6.95;;
60233;SDS011;49514;43.538;-5.708;2023-07-29T03:50:33;29.55;;;12.85;;
60233;SDS011;49514;43.538;-5.708;2023-07-29T03:53:02;16.50;;;6.38;;
60233;SDS011;49514;43.538;-5.708;2023-07-29T03:55:29;9.98;;;2.50;;
60233;SDS011;49514;43.538;-5.708;2023-07-29T03:57:57;8.70;;;2.38;;
60233;SDS011;49514;43.538;-5.708;2023-07-29T04:00:25;10.05;;;3.50;;
60233;SDS011;49514;43.538;-5.708;2023-07-29T04:02:52;14.05;;;3.95;;
60233;SDS011;49514;43.538;-5.708;2023-07-29T04:05:19;8.65;;;2.80;;
60233;SDS011;49514;43.538;-5.708;2023-07-29T04:07:46;6.15;;;2.65;;
60233;SDS011;49514;43.538;-5.708;2023-07-29T04:10:12;8.82;;;2.20;;
60233;SDS011;49514;43.538;-5.708;2023-07-29T04:12:39;6.93;;;2.45;;
60233;SDS011;49514;43.538;-5.708;2023-07-29T04:15:07;7.15;;;2.30;;
60233;SDS011;49514;43.538;-5.708;2023-07-29T04:17:33;7.70;;;2.47;;
60233;SDS011;49514;43.538;-5.708;2023-07-29T04:20:00;6.97;;;2.92;;
60233;SDS011;49514;43.538;-5.708;2023-07-29T04:22:32;5.80;;;2.40;;
60233;SDS011;49514;43.538;-5.708;2023-07-29T04:25:00;10.52;;;2.80;;
60233;SDS011;49514;43.538;-5.708;2023-07-29T04:27:27;11.68;;;2.60;;
60233;SDS011;49514;43.538;-5.708;2023-07-29T04:29:53;7.35;;;2.45;;
60233;SDS011;49514;43.538;-5.708;2023-07-29T04:32:20;6.85;;;2.38;;
60233;SDS011;49514;43.538;-5.708;2023-07-29T04:34:46;7.65;;;2.40;;
60233;SDS011;49514;43.538;-5.708;2023-07-29T04:37:13;5.65;;;2.22;;
60233;SDS011;49514;43.538;-5.708;2023-07-29T04:39:40;9.80;;;2.50;;
60233;SDS011;49514;43.538;-5.708;2023-07-29T04:42:06;11.60;;;2.70;;
60233;SDS011;49514;43.538;-5.708;2023-07-29T04:44:34;10.05;;;2.83;;
60233;SDS011;49514;43.538;-5.708;2023-07-29T04:47:02;10.32;;;2.42;;
60233;SDS011;49514;43.538;-5.708;2023-07-29T04:49:28;14.60;;;2.40;;
60233;SDS011;49514;43.538;-5.708;2023-07-29T04:51:55;9.27;;;2.50;;
60233;SDS011;49514;43.538;-5.708;2023-07-29T04:54:22;14.35;;;3.08;;
60233;SDS011;49514;43.538;-5.708;2023-07-29T04:56:48;13.02;;;2.67;;
60233;SDS011;49514;43.538;-5.708;2023-07-29T04:59:17;7.68;;;2.13;;
60233;SDS011;49514;43.538;-5.708;2023-07-29T05:01:43;7.20;;;2.47;;
60233;SDS011;49514;43.538;-5.708;2023-07-29T05:04:10;8.48;;;2.58;;
60233;SDS011;49514;43.538;-5.708;2023-07-29T05:06:36;9.90;;;2.60;;
60233;SDS011;49514;43.538;-5.708;2023-07-29T05:09:13;5.97;;;2.47;;
60233;SDS011;49514;43.538;-5.708;2023-07-29T05:11:40;6.53;;;2.33;;
60233;SDS011;49514;43.538;-5.708;2023-07-29T05:14:07;8.70;;;2.97;;
60233;SDS011;49514;43.538;-5.708;2023-07-29T05:16:35;7.57;;;2.75;;
60233;SDS011;49514;43.538;-5.708;2023-07-29T05:19:02;5.32;;;2.15;;
60233;SDS011;49514;43.538;-5.708;2023-07-29T05:21:29;7.57;;;2.45;;
60233;SDS011;49514;43.538;-5.708;2023-07-29T05:23:56;4.47;;;2.30;;
60233;SDS011;49514;43.538;-5.708;2023-07-29T05:26:23;6.25;;;2.50;;
60233;SDS011;49514;43.538;-5.708;2023-07-29T05:28:49;16.20;;;4.10;;
60233;SDS011;49514;43.538;-5.708;2023-07-29T05:31:16;14.32;;;3.22;;
60233;SDS011;49514;43.538;-5.708;2023-07-29T05:33:44;7.95;;;3.00;;
60233;SDS011;49514;43.538;-5.708;2023-07-29T05:36:10;11.98;;;3.35;;
60233;SDS011;49514;43.538;-5.708;2023-07-29T05:38:37;8.90;;;3.47;;
60233;SDS011;49514;43.538;-5.708;2023-07-29T05:41:04;9.85;;;3.30;;
60233;SDS011;49514;43.538;-5.708;2023-07-29T05:43:31;7.03;;;2.70;;
60233;SDS011;49514;43.538;-5.708;2023-07-29T05:45:57;8.40;;;3.00;;
60233;SDS011;49514;43.538;-5.708;2023-07-29T05:48:24;6.03;;;2.58;;
60233;SDS011;49514;43.538;-5.708;2023-07-29T05:50:51;4.60;;;1.90;;
60233;SDS011;49514;43.538;-5.708;2023-07-29T05:53:18;3.50;;;1.98;;
60233;SDS011;49514;43.538;-5.708;2023-07-29T05:55:44;2.67;;;1.80;;
60233;SDS011;49514;43.538;-5.708;2023-07-29T05:58:11;4.78;;;1.50;;
60233;SDS011;49514;43.538;-5.708;2023-07-29T06:00:38;2.60;;;1.42;;
60233;SDS011;49514;43.538;-5.708;2023-07-29T06:03:05;2.67;;;1.58;;
60233;SDS011;49514;43.538;-5.708;2023-07-29T06:05:32;3.38;;;1.58;;
60233;SDS011;49514;43.538;-5.708;2023-07-29T06:07:59;3.08;;;1.30;;
60233;SDS011;49514;43.538;-5.708;2023-07-29T06:10:25;3.33;;;1.73;;
60233;SDS011;49514;43.538;-5.708;2023-07-29T06:12:52;2.40;;;1.15;;
60233;SDS011;49514;43.538;-5.708;2023-07-29T06:15:18;2.15;;;0.95;;
60233;SDS011;49514;43.538;-5.708;2023-07-29T06:17:48;2.53;;;1.15;;
60233;SDS011;49514;43.538;-5.708;2023-07-29T06:20:15;2.15;;;1.15;;
60233;SDS011;49514;43.538;-5.708;2023-07-29T06:22:42;3.78;;;1.40;;
60233;SDS011;49514;43.538;-5.708;2023-07-29T06:25:09;3.25;;;1.15;;
60233;SDS011;49514;43.538;-5.708;2023-07-29T06:27:35;2.40;;;1.30;;
60233;SDS011;49514;43.538;-5.708;2023-07-29T06:30:02;10.43;;;1.98;;
60233;SDS011;49514;43.538;-5.708;2023-07-29T06:32:29;5.22;;;2.30;;
60233;SDS011;49514;43.538;-5.708;2023-07-29T06:34:56;8.15;;;3.13;;
60233;SDS011;49514;43.538;-5.708;2023-07-29T06:37:22;8.00;;;2.58;;
60233;SDS011;49514;43.538;-5.708;2023-07-29T06:39:49;9.10;;;3.00;;
60233;SDS011;49514;43.538;-5.708;2023-07-29T06:42:15;10.73;;;3.17;;
60233;SDS011;49514;43.538;-5.708;2023-07-29T06:44:42;7.03;;;2.78;;
60233;SDS011;49514;43.538;-5.708;2023-07-29T06:47:11;9.55;;;3.15;;
60233;SDS011;49514;43.538;-5.708;2023-07-29T06:49:38;8.98;;;3.42;;
60233;SDS011;49514;43.538;-5.708;2023-07-29T06:52:04;8.98;;;3.20;;
60233;SDS011;49514;43.538;-5.708;2023-07-29T06:54:31;6.18;;;2.75;;
60233;SDS011;49514;43.538;-5.708;2023-07-29T06:56:58;5.15;;;2.17;;
60233;SDS011;49514;43.538;-5.708;2023-07-29T06:59:25;4.80;;;1.77;;
60233;SDS011;49514;43.538;-5.708;2023-07-29T07:01:51;6.80;;;2.70;;
60233;SDS011;49514;43.538;-5.708;2023-07-29T07:04:18;7.82;;;2.40;;
60233;SDS011;49514;43.538;-5.708;2023-07-29T07:06:44;6.40;;;2.13;;
60233;SDS011;49514;43.538;-5.708;2023-07-29T07:09:11;5.20;;;1.90;;
60233;SDS011;49514;43.538;-5.708;2023-07-29T07:11:38;4.10;;;1.77;;
60233;SDS011;49514;43.538;-5.708;2023-07-29T07:14:05;5.10;;;1.40;;
60233;SDS011;49514;43.538;-5.708;2023-07-29T07:16:31;2.63;;;1.80;;
60233;SDS011;49514;43.538;-5.708;2023-07-29T07:18:58;4.05;;;1.95;;
60233;SDS011;49514;43.538;-5.708;2023-07-29T07:21:25;3.65;;;2.40;;
60233;SDS011;49514;43.538;-5.708;2023-07-29T07:23:52;5.30;;;2.20;;
60233;SDS011;49514;43.538;-5.708;2023-07-29T07:26:18;3.40;;;1.55;;
60233;SDS011;49514;43.538;-5.708;2023-07-29T07:28:45;9.70;;;1.77;;
60233;SDS011;49514;43.538;-5.708;2023-07-29T07:31:11;5.15;;;1.60;;
60233;SDS011;49514;43.538;-5.708;2023-07-29T07:33:38;1.83;;;1.50;;
60233;SDS011;49514;43.538;-5.708;2023-07-29T07:36:05;4.25;;;1.95;;
60233;SDS011;49514;43.538;-5.708;2023-07-29T07:38:31;2.65;;;1.70;;
60233;SDS011;49514;43.538;-5.708;2023-07-29T07:40:58;2.28;;;1.50;;
60233;SDS011;49514;43.538;-5.708;2023-07-29T07:43:24;3.45;;;1.80;;
60233;SDS011;49514;43.538;-5.708;2023-07-29T07:45:51;11.90;;;4.47;;
60233;SDS011;49514;43.538;-5.708;2023-07-29T07:48:23;32.13;;;13.80;;
60233;SDS011;49514;43.538;-5.708;2023-07-29T07:50:50;20.55;;;9.18;;
60233;SDS011;49514;43.538;-5.708;2023-07-29T07:53:16;8.77;;;3.45;;
60233;SDS011;49514;43.538;-5.708;2023-07-29T07:55:43;4.72;;;1.80;;
60233;SDS011;49514;43.538;-5.708;2023-07-29T07:58:09;6.43;;;2.40;;
60233;SDS011;49514;43.538;-5.708;2023-07-29T08:00:36;6.45;;;1.80;;
60233;SDS011;49514;43.538;-5.708;2023-07-29T08:03:03;7.57;;;2.30;;
60233;SDS011;49514;43.538;-5.708;2023-07-29T08:05:30;4.15;;;1.42;;
60233;SDS011;49514;43.538;-5.708;2023-07-29T08:07:58;4.07;;;1.52;;
60233;SDS011;49514;43.538;-5.708;2023-07-29T08:10:24;4.68;;;1.52;;
60233;SDS011;49514;43.538;-5.708;2023-07-29T08:12:52;3.75;;;1.38;;
60233;SDS011;49514;43.538;-5.708;2023-07-29T08:15:20;5.55;;;1.52;;
60233;SDS011;49514;43.538;-5.708;2023-07-29T08:17:47;4.97;;;1.20;;
60233;SDS011;49514;43.538;-5.708;2023-07-29T08:20:14;6.07;;;1.40;;
60233;SDS011;49514;43.538;-5.708;2023-07-29T08:22:40;4.55;;;1.20;;
60233;SDS011;49514;43.538;-5.708;2023-07-29T08:25:07;5.10;;;1.13;;
60233;SDS011;49514;43.538;-5.708;2023-07-29T08:27:34;4.40;;;1.25;;
60233;SDS011;49514;43.538;-5.708;2023-07-29T08:30:00;3.03;;;0.70;;
60233;SDS011;49514;43.538;-5.708;2023-07-29T13:55:15;4.00;;;1.20;;
60233;SDS011;49514;43.538;-5.708;2023-07-29T13:57:42;4.10;;;1.50;;
60233;SDS011;49514;43.538;-5.708;2023-07-29T14:00:09;2.67;;;1.20;;
60233;SDS011;49514;43.538;-5.708;2023-07-29T14:02:38;4.05;;;1.30;;
60233;SDS011;49514;43.538;-5.708;2023-07-29T14:05:05;1.87;;;0.97;;
60233;SDS011;49514;43.538;-5.708;2023-07-29T14:07:33;4.13;;;1.23;;
60233;SDS011;49514;43.538;-5.708;2023-07-29T14:10:00;4.95;;;1.40;;
60233;SDS011;49514;43.538;-5.708;2023-07-29T14:12:26;5.47;;;1.30;;
60233;SDS011;49514;43.538;-5.708;2023-07-29T14:14:53;3.53;;;1.20;;
60233;SDS011;49514;43.538;-5.708;2023-07-29T14:17:20;3.30;;;1.10;;
60233;SDS011;49514;43.538;-5.708;2023-07-29T14:19:46;4.47;;;1.20;;
60233;SDS011;49514;43.538;-5.708;2023-07-29T14:22:13;3.70;;;1.20;;
60233;SDS011;49514;43.538;-5.708;2023-07-29T14:24:40;4.25;;;1.25;;
60233;SDS011;49514;43.538;-5.708;2023-07-29T14:27:06;3.97;;;1.27;;
60233;SDS011;49514;43.538;-5.708;2023-07-29T14:29:33;2.60;;;0.95;;
60233;SDS011;49514;43.538;-5.708;2023-07-29T14:31:59;3.60;;;1.10;;
60233;SDS011;49514;43.538;-5.708;2023-07-29T14:34:26;4.45;;;1.20;;
60233;SDS011;49514;43.538;-5.708;2023-07-29T14:36:53;4.70;;;1.20;;
60233;SDS011;49514;43.538;-5.708;2023-07-29T14:39:19;4.47;;;1.10;;
60233;SDS011;49514;43.538;-5.708;2023-07-29T14:41:46;2.88;;;1.10;;
60233;SDS011;49514;43.538;-5.708;2023-07-29T14:44:13;3.63;;;1.10;;
60233;SDS011;49514;43.538;-5.708;2023-07-29T14:46:39;2.42;;;1.00;;
60233;SDS011;49514;43.538;-5.708;2023-07-29T14:49:06;4.10;;;0.90;;
60233;SDS011;49514;43.538;-5.708;2023-07-29T14:51:33;4.40;;;1.20;;
60233;SDS011;49514;43.538;-5.708;2023-07-29T14:54:00;4.30;;;0.95;;
60233;SDS011;49514;43.538;-5.708;2023-07-29T14:56:27;2.03;;;0.90;;
60233;SDS011;49514;43.538;-5.708;2023-07-29T14:58:54;2.88;;;1.00;;
60233;SDS011;49514;43.538;-5.708;2023-07-29T15:01:21;3.35;;;0.95;;
60233;SDS011;49514;43.538;-5.708;2023-07-29T15:03:48;3.40;;;1.00;;
60233;SDS011;49514;43.538;-5.708;2023-07-29T15:06:15;2.50;;;0.80;;
60233;SDS011;49514;43.538;-5.708;2023-07-29T15:08:41;2.95;;;0.85;;
60233;SDS011;49514;43.538;-5.708;2023-07-29T15:11:08;2.78;;;0.80;;
60233;SDS011;49514;43.538;-5.708;2023-07-29T15:13:35;4.00;;;1.00;;
60233;SDS011;49514;43.538;-5.708;2023-07-29T15:16:01;2.63;;;0.93;;
60233;SDS011;49514;43.538;-5.708;2023-07-29T15:18:29;2.05;;;0.80;;
60233;SDS011;49514;43.538;-5.708;2023-07-29T15:20:56;3.60;;;1.10;;
60233;SDS011;49514;43.538;-5.708;2023-07-29T15:23:23;3.70;;;1.00;;
60233;SDS011;49514;43.538;-5.708;2023-07-29T15:25:50;2.47;;;0.90;;
60233;SDS011;49514;43.538;-5.708;2023-07-29T15:28:17;3.25;;;1.00;;
60233;SDS011;49514;43.538;-5.708;2023-07-29T15:30:44;2.72;;;0.80;;
60233;SDS011;49514;43.538;-5.708;2023-07-29T15:33:10;2.70;;;0.90;;
60233;SDS011;49514;43.538;-5.708;2023-07-29T15:35:38;4.32;;;0.80;;
60233;SDS011;49514;43.538;-5.708;2023-07-29T15:38:05;2.08;;;0.80;;
60233;SDS011;49514;43.538;-5.708;2023-07-29T15:40:32;4.10;;;1.00;;
60233;SDS011;49514;43.538;-5.708;2023-07-29T15:42:59;2.88;;;0.82;;
60233;SDS011;49514;43.538;-5.708;2023-07-29T15:45:26;5.10;;;1.10;;
60233;SDS011;49514;43.538;-5.708;2023-07-29T15:47:53;4.47;;;1.25;;
60233;SDS011;49514;43.538;-5.708;2023-07-29T15:50:19;5.87;;;1.20;;
60233;SDS011;49514;43.538;-5.708;2023-07-29T15:52:46;4.28;;;1.20;;
60233;SDS011;49514;43.538;-5.708;2023-07-29T15:55:13;4.00;;;1.00;;
60233;SDS011;49514;43.538;-5.708;2023-07-29T15:57:39;3.60;;;1.00;;
60233;SDS011;49514;43.538;-5.708;2023-07-29T16:00:07;2.60;;;1.00;;
60233;SDS011;49514;43.538;-5.708;2023-07-29T16:02:38;4.40;;;0.80;;
60233;SDS011;49514;43.538;-5.708;2023-07-29T16:05:05;3.77;;;1.00;;
60233;SDS011;49514;43.538;-5.708;2023-07-29T16:07:33;4.57;;;0.90;;
60233;SDS011;49514;43.538;-5.708;2023-07-29T16:09:59;3.90;;;1.00;;
60233;SDS011;49514;43.538;-5.708;2023-07-29T16:12:26;3.97;;;0.80;;
60233;SDS011;49514;43.538;-5.708;2023-07-29T16:14:53;5.18;;;1.48;;
60233;SDS011;49514;43.538;-5.708;2023-07-29T16:17:21;2.28;;;0.90;;
60233;SDS011;49514;43.538;-5.708;2023-07-29T16:19:55;3.93;;;1.00;;
60233;SDS011;49514;43.538;-5.708;2023-07-29T16:22:26;2.00;;;0.70;;
60233;SDS011;49514;43.538;-5.708;2023-07-29T16:24:53;4.57;;;1.10;;
60233;SDS011;49514;43.538;-5.708;2023-07-29T16:27:19;3.08;;;0.80;;
60233;SDS011;49514;43.538;-5.708;2023-07-29T16:29:46;4.53;;;0.90;;
60233;SDS011;49514;43.538;-5.708;2023-07-29T16:32:14;3.35;;;0.90;;
60233;SDS011;49514;43.538;-5.708;2023-07-29T16:34:41;2.40;;;0.80;;
60233;SDS011;49514;43.538;-5.708;2023-07-29T16:37:08;3.50;;;0.80;;
60233;SDS011;49514;43.538;-5.708;2023-07-29T16:39:35;3.38;;;0.90;;
60233;SDS011;49514;43.538;-5.708;2023-07-29T16:42:02;4.93;;;1.00;;
60233;SDS011;49514;43.538;-5.708;2023-07-29T16:44:29;3.70;;;0.83;;
60233;SDS011;49514;43.538;-5.708;2023-07-29T16:46:56;2.75;;;0.90;;
60233;SDS011;49514;43.538;-5.708;2023-07-29T16:49:23;4.28;;;1.00;;
60233;SDS011;49514;43.538;-5.708;2023-07-29T16:51:49;3.90;;;1.00;;
60233;SDS011;49514;43.538;-5.708;2023-07-29T16:54:16;4.88;;;0.90;;
60233;SDS011;49514;43.538;-5.708;2023-07-29T16:56:46;4.07;;;1.08;;
60233;SDS011;49514;43.538;-5.708;2023-07-29T16:59:14;5.47;;;1.33;;
60233;SDS011;49514;43.538;-5.708;2023-07-29T17:01:41;6.07;;;1.52;;
60233;SDS011;49514;43.538;-5.708;2023-07-29T17:04:07;12.30;;;1.67;;
60233;SDS011;49514;43.538;-5.708;2023-07-29T17:06:34;7.13;;;1.45;;
60233;SDS011;49514;43.538;-5.708;2023-07-29T17:09:00;9.97;;;1.70;;
60233;SDS011;49514;43.538;-5.708;2023-07-29T17:11:27;8.25;;;1.55;;
60233;SDS011;49514;43.538;-5.708;2023-07-29T17:13:54;7.70;;;1.63;;
60233;SDS011;49514;43.538;-5.708;2023-07-29T17:16:20;10.45;;;2.00;;
60233;SDS011;49514;43.538;-5.708;2023-07-29T17:18:47;9.45;;;2.00;;
60233;SDS011;49514;43.538;-5.708;2023-07-29T17:21:14;11.68;;;1.98;;
60233;SDS011;49514;43.538;-5.708;2023-07-29T17:23:40;6.63;;;1.50;;
60233;SDS011;49514;43.538;-5.708;2023-07-29T17:26:07;7.53;;;1.42;;
60233;SDS011;49514;43.538;-5.708;2023-07-29T17:28:36;7.88;;;2.00;;
60233;SDS011;49514;43.538;-5.708;2023-07-29T17:31:03;10.30;;;2.15;;
60233;SDS011;49514;43.538;-5.708;2023-07-29T17:33:30;8.63;;;1.60;;
60233;SDS011;49514;43.538;-5.708;2023-07-29T17:35:56;12.20;;;2.10;;
60233;SDS011;49514;43.538;-5.708;2023-07-29T17:38:23;11.20;;;2.13;;
60233;SDS011;49514;43.538;-5.708;2023-07-29T17:40:50;8.75;;;1.70;;
60233;SDS011;49514;43.538;-5.708;2023-07-29T17:43:18;6.65;;;1.45;;
60233;SDS011;49514;43.538;-5.708;2023-07-29T17:45:44;8.85;;;1.50;;
60233;SDS011;49514;43.538;-5.708;2023-07-29T17:48:11;11.48;;;2.28;;
60233;SDS011;49514;43.538;-5.708;2023-07-29T17:50:38;11.23;;;2.20;;
60233;SDS011;49514;43.538;-5.708;2023-07-29T17:53:06;9.73;;;1.80;;
60233;SDS011;49514;43.538;-5.708;2023-07-29T17:55:36;11.18;;;2.47;;
60233;SDS011;49514;43.538;-5.708;2023-07-29T17:58:07;11.57;;;2.10;;
60233;SDS011;49514;43.538;-5.708;2023-07-29T18:00:34;7.70;;;1.80;;
60233;SDS011;49514;43.538;-5.708;2023-07-29T18:03:01;9.23;;;1.95;;
60233;SDS011;49514;43.538;-5.708;2023-07-29T18:05:28;7.57;;;1.80;;
60233;SDS011;49514;43.538;-5.708;2023-07-29T18:07:55;6.07;;;1.50;;
60233;SDS011;49514;43.538;-5.708;2023-07-29T18:10:22;5.20;;;1.50;;
60233;SDS011;49514;43.538;-5.708;2023-07-29T18:12:50;6.60;;;1.57;;
60233;SDS011;49514;43.538;-5.708;2023-07-29T18:15:17;6.93;;;1.50;;
60233;SDS011;49514;43.538;-5.708;2023-07-29T18:17:43;6.43;;;1.90;;
60233;SDS011;49514;43.538;-5.708;2023-07-29T18:20:10;10.40;;;2.05;;
60233;SDS011;49514;43.538;-5.708;2023-07-29T18:22:37;15.87;;;3.00;;
60233;SDS011;49514;43.538;-5.708;2023-07-29T18:25:04;12.00;;;2.63;;
60233;SDS011;49514;43.538;-5.708;2023-07-29T18:27:31;6.63;;;2.10;;
60233;SDS011;49514;43.538;-5.708;2023-07-29T18:29:58;8.85;;;2.22;;
60233;SDS011;49514;43.538;-5.708;2023-07-29T18:32:24;9.77;;;1.90;;
60233;SDS011;49514;43.538;-5.708;2023-07-29T18:34:51;8.48;;;2.25;;
60233;SDS011;49514;43.538;-5.708;2023-07-29T18:37:18;8.25;;;2.10;;
60233;SDS011;49514;43.538;-5.708;2023-07-29T18:39:44;11.23;;;2.10;;
60233;SDS011;49514;43.538;-5.708;2023-07-29T18:42:11;8.73;;;1.60;;
60233;SDS011;49514;43.538;-5.708;2023-07-29T18:44:39;10.68;;;2.10;;
60233;SDS011;49514;43.538;-5.708;2023-07-29T18:47:05;8.80;;;2.05;;
60233;SDS011;49514;43.538;-5.708;2023-07-29T18:49:34;6.83;;;1.90;;
60233;SDS011;49514;43.538;-5.708;2023-07-29T18:52:00;8.20;;;1.88;;
60233;SDS011;49514;43.538;-5.708;2023-07-29T18:54:27;6.47;;;1.70;;
60233;SDS011;49514;43.538;-5.708;2023-07-29T18:56:54;6.72;;;1.73;;
60233;SDS011;49514;43.538;-5.708;2023-07-29T18:59:21;7.65;;;1.75;;
60233;SDS011;49514;43.538;-5.708;2023-07-29T19:01:48;10.40;;;1.88;;
60233;SDS011;49514;43.538;-5.708;2023-07-29T19:04:15;9.73;;;1.80;;
60233;SDS011;49514;43.538;-5.708;2023-07-29T19:06:42;6.35;;;1.65;;
60233;SDS011;49514;43.538;-5.708;2023-07-29T19:09:08;4.85;;;1.50;;
60233;SDS011;49514;43.538;-5.708;2023-07-29T19:11:35;6.50;;;1.92;;
60233;SDS011;49514;43.538;-5.708;2023-07-29T19:14:02;9.43;;;2.20;;
60233;SDS011;49514;43.538;-5.708;2023-07-29T19:16:29;7.60;;;2.15;;
60233;SDS011;49514;43.538;-5.708;2023-07-29T19:18:56;8.10;;;2.03;;
60233;SDS011;49514;43.538;-5.708;2023-07-29T19:21:23;7.17;;;1.80;;
60233;SDS011;49514;43.538;-5.708;2023-07-29T19:23:50;11.40;;;2.25;;
60233;SDS011;49514;43.538;-5.708;2023-07-29T19:26:16;7.20;;;2.13;;
60233;SDS011;49514;43.538;-5.708;2023-07-29T19:28:48;7.45;;;2.10;;
60233;SDS011;49514;43.538;-5.708;2023-07-29T19:31:16;6.40;;;1.80;;
60233;SDS011;49514;43.538;-5.708;2023-07-29T19:33:42;9.30;;;2.10;;
60233;SDS011;49514;43.538;-5.708;2023-07-29T19:36:09;6.83;;;2.00;;
60233;SDS011;49514;43.538;-5.708;2023-07-29T19:38:36;7.95;;;2.00;;
60233;SDS011;49514;43.538;-5.708;2023-07-29T19:41:03;8.23;;;2.07;;
60233;SDS011;49514;43.538;-5.708;2023-07-29T19:43:30;6.82;;;1.80;;
60233;SDS011;49514;43.538;-5.708;2023-07-29T19:45:57;6.83;;;1.97;;
60233;SDS011;49514;43.538;-5.708;2023-07-29T19:48:29;8.47;;;1.83;;
60233;SDS011;49514;43.538;-5.708;2023-07-29T19:50:58;7.78;;;1.90;;
60233;SDS011;49514;43.538;-5.708;2023-07-29T19:53:25;11.27;;;2.60;;
60233;SDS011;49514;43.538;-5.708;2023-07-29T19:55:53;7.63;;;2.03;;
60233;SDS011;49514;43.538;-5.708;2023-07-29T19:58:20;9.75;;;2.03;;
60233;SDS011;49514;43.538;-5.708;2023-07-29T20:00:50;10.30;;;2.20;;
60233;SDS011;49514;43.538;-5.708;2023-07-29T20:03:18;6.35;;;1.70;;
60233;SDS011;49514;43.538;-5.708;2023-07-29T20:05:48;6.80;;;1.90;;
60233;SDS011;49514;43.538;-5.708;2023-07-29T20:08:15;9.60;;;2.10;;
60233;SDS011;49514;43.538;-5.708;2023-07-29T20:10:43;6.63;;;1.97;;
60233;SDS011;49514;43.538;-5.708;2023-07-29T20:13:12;7.77;;;2.00;;
60233;SDS011;49514;43.538;-5.708;2023-07-29T20:15:39;8.75;;;2.15;;
60233;SDS011;49514;43.538;-5.708;2023-07-29T20:18:06;5.75;;;1.60;;
60233;SDS011;49514;43.538;-5.708;2023-07-29T20:20:33;8.10;;;1.80;;
60233;SDS011;49514;43.538;-5.708;2023-07-29T20:23:00;9.95;;;2.10;;
60233;SDS011;49514;43.538;-5.708;2023-07-29T20:25:28;7.88;;;1.90;;
60233;SDS011;49514;43.538;-5.708;2023-07-29T20:27:55;9.60;;;2.00;;
60233;SDS011;49514;43.538;-5.708;2023-07-29T20:30:22;8.13;;;2.05;;
60233;SDS011;49514;43.538;-5.708;2023-07-29T20:32:49;10.63;;;2.57;;
60233;SDS011;49514;43.538;-5.708;2023-07-29T20:35:17;7.70;;;2.08;;
60233;SDS011;49514;43.538;-5.708;2023-07-29T20:37:43;6.97;;;2.05;;
60233;SDS011;49514;43.538;-5.708;2023-07-29T20:40:10;9.00;;;2.17;;
60233;SDS011;49514;43.538;-5.708;2023-07-29T20:42:40;9.60;;;2.20;;
60233;SDS011;49514;43.538;-5.708;2023-07-29T20:45:07;9.27;;;2.10;;
60233;SDS011;49514;43.538;-5.708;2023-07-29T20:47:34;6.97;;;2.20;;
60233;SDS011;49514;43.538;-5.708;2023-07-29T20:50:02;11.50;;;2.20;;
60233;SDS011;49514;43.538;-5.708;2023-07-29T20:52:31;8.77;;;2.20;;
60233;SDS011;49514;43.538;-5.708;2023-07-29T20:54:57;7.47;;;2.00;;
60233;SDS011;49514;43.538;-5.708;2023-07-29T20:57:25;9.75;;;2.47;;
60233;SDS011;49514;43.538;-5.708;2023-07-29T20:59:52;7.85;;;2.10;;
60233;SDS011;49514;43.538;-5.708;2023-07-29T21:02:19;8.43;;;2.05;;
60233;SDS011;49514;43.538;-5.708;2023-07-29T21:04:46;7.30;;;1.90;;
60233;SDS011;49514;43.538;-5.708;2023-07-29T21:07:13;7.07;;;1.92;;
60233;SDS011;49514;43.538;-5.708;2023-07-29T21:09:40;6.65;;;1.80;;
60233;SDS011;49514;43.538;-5.708;2023-07-29T21:12:07;8.20;;;1.90;;
60233;SDS011;49514;43.538;-5.708;2023-07-29T21:14:34;6.57;;;1.80;;
60233;SDS011;49514;43.538;-5.708;2023-07-29T21:17:00;11.57;;;2.00;;
60233;SDS011;49514;43.538;-5.708;2023-07-29T21:19:27;6.47;;;1.80;;
60233;SDS011;49514;43.538;-5.708;2023-07-29T21:21:54;7.75;;;1.98;;
60233;SDS011;49514;43.538;-5.708;2023-07-29T21:24:21;8.48;;;2.13;;
60233;SDS011;49514;43.538;-5.708;2023-07-29T21:26:47;8.02;;;2.10;;
60233;SDS011;49514;43.538;-5.708;2023-07-29T21:29:14;9.60;;;2.15;;
60233;SDS011;49514;43.538;-5.708;2023-07-29T21:31:42;9.33;;;2.00;;
60233;SDS011;49514;43.538;-5.708;2023-07-29T21:34:12;8.23;;;2.00;;
60233;SDS011;49514;43.538;-5.708;2023-07-29T21:36:39;7.63;;;1.83;;
60233;SDS011;49514;43.538;-5.708;2023-07-29T21:39:07;6.87;;;2.00;;
60233;SDS011;49514;43.538;-5.708;2023-07-29T21:41:35;6.38;;;2.03;;
60233;SDS011;49514;43.538;-5.708;2023-07-29T21:44:03;11.38;;;2.33;;
60233;SDS011;49514;43.538;-5.708;2023-07-29T21:48:11;9.23;;;2.07;;
60233;SDS011;49514;43.538;-5.708;2023-07-29T21:50:40;8.45;;;2.20;;
60233;SDS011;49514;43.538;-5.708;2023-07-29T21:53:07;8.53;;;2.00;;
60233;SDS011;49514;43.538;-5.708;2023-07-29T21:55:34;8.82;;;1.98;;
60233;SDS011;49514;43.538;-5.708;2023-07-29T21:58:04;8.60;;;1.92;;
60233;SDS011;49514;43.538;-5.708;2023-07-29T22:00:33;7.38;;;1.98;;
60233;SDS011;49514;43.538;-5.708;2023-07-29T22:02:59;7.93;;;2.40;;
60233;SDS011;49514;43.538;-5.708;2023-07-29T22:05:26;15.00;;;2.50;;
60233;SDS011;49514;43.538;-5.708;2023-07-29T22:07:53;10.52;;;2.35;;
60233;SDS011;49514;43.538;-5.708;2023-07-29T22:10:20;8.03;;;2.03;;
60233;SDS011;49514;43.538;-5.708;2023-07-29T22:12:47;10.80;;;2.25;;
60233;SDS011;49514;43.538;-5.708;2023-07-29T22:15:14;8.73;;;2.07;;
60233;SDS011;49514;43.538;-5.708;2023-07-29T22:17:41;8.32;;;2.35;;
60233;SDS011;49514;43.538;-5.708;2023-07-29T22:20:08;8.83;;;2.67;;
60233;SDS011;49514;43.538;-5.708;2023-07-29T22:22:35;12.80;;;2.55;;
60233;SDS011;49514;43.538;-5.708;2023-07-29T22:25:02;10.18;;;2.58;;
60233;SDS011;49514;43.538;-5.708;2023-07-29T22:27:29;10.80;;;2.20;;
60233;SDS011;49514;43.538;-5.708;2023-07-29T22:29:55;13.93;;;2.70;;
60233;SDS011;49514;43.538;-5.708;2023-07-29T22:32:23;10.95;;;2.40;;
60233;SDS011;49514;43.538;-5.708;2023-07-29T22:34:50;8.52;;;2.30;;
60233;SDS011;49514;43.538;-5.708;2023-07-29T22:37:18;7.85;;;2.30;;
60233;SDS011;49514;43.538;-5.708;2023-07-29T22:39:45;9.55;;;2.72;;
60233;SDS011;49514;43.538;-5.708;2023-07-29T22:42:14;9.57;;;2.60;;
60233;SDS011;49514;43.538;-5.708;2023-07-29T22:44:40;9.77;;;2.90;;
60233;SDS011;49514;43.538;-5.708;2023-07-29T22:47:07;9.10;;;2.55;;
60233;SDS011;49514;43.538;-5.708;2023-07-29T22:49:35;7.23;;;2.40;;
60233;SDS011;49514;43.538;-5.708;2023-07-29T22:52:02;9.73;;;2.90;;
60233;SDS011;49514;43.538;-5.708;2023-07-29T22:54:29;8.75;;;2.60;;
60233;SDS011;49514;43.538;-5.708;2023-07-29T22:56:56;9.07;;;2.80;;
60233;SDS011;49514;43.538;-5.708;2023-07-29T22:59:22;10.30;;;3.17;;
60233;SDS011;49514;43.538;-5.708;2023-07-29T23:01:49;11.93;;;3.80;;
60233;SDS011;49514;43.538;-5.708;2023-07-29T23:04:16;10.87;;;2.87;;
60233;SDS011;49514;43.538;-5.708;2023-07-29T23:06:42;9.95;;;3.28;;
60233;SDS011;49514;43.538;-5.708;2023-07-29T23:09:09;7.35;;;2.70;;
60233;SDS011;49514;43.538;-5.708;2023-07-29T23:11:36;9.30;;;2.67;;
60233;SDS011;49514;43.538;-5.708;2023-07-29T23:14:03;11.55;;;2.70;;
60233;SDS011;49514;43.538;-5.708;2023-07-29T23:16:30;8.10;;;2.40;;
60233;SDS011;49514;43.538;-5.708;2023-07-29T23:18:58;11.32;;;2.83;;
60233;SDS011;49514;43.538;-5.708;2023-07-29T23:21:24;11.13;;;2.77;;
60233;SDS011;49514;43.538;-5.708;2023-07-29T23:23:51;9.52;;;2.45;;
60233;SDS011;49514;43.538;-5.708;2023-07-29T23:26:18;8.50;;;2.67;;
60233;SDS011;49514;43.538;-5.708;2023-07-29T23:28:45;14.65;;;3.20;;
60233;SDS011;49514;43.538;-5.708;2023-07-29T23:31:11;13.90;;;3.30;;
60233;SDS011;49514;43.538;-5.708;2023-07-29T23:33:38;10.75;;;2.88;;